Pasadena 2N

39° 08' 31"N, 76° 30' 27"W, Elevation 43 ft.
Eastern Time

Hourly observations for the last 72 hours

Date Time Temperature (°F) Humi-
dity

(%)
Wind
(mph)
Pressure Rain (in) Sun
(W/m2)
ET
(in)
Air Dew 6 Hour 1 Hr 3 Hr 6 Hr Day
Alt
(in)
Sea
Level

(mb)
Max Min
27 00:00 35.9 27.4 71 W 0 G 3 29.83 1010.3 0.00 0 0.038
26 23:00 39.8 29.0 65 W 0 G 3 29.84 1010.4 0.00 0 0.037
26 22:00 41.2 29.6 63 W 2 G 12 29.85 1011.0 0.00 0 0.036
26 21:00 41.9 29.8 62 NW 2 G 10 29.87 1011.4 0.00 0 0.035
26 20:00 42.5 31.6 65 W 1 G 8 29.87 1011.6 0.00 0 0.034
26 19:00 42.7 31.8 49.8 42.7 65 W 0 G 6 29.87 1011.5 0.00 0 0.033
26 18:00 43.5 31.3 62 W 3 G 9 29.85 1010.9 0.00 0 0.032
26 17:00 44.5 31.9 61 W 3 G 14 29.84 1010.6 0.00 11 0.030
26 16:00 45.4 31.9 59 W 6 G 16 29.84 1010.6 0.00 44 0.027
26 15:00 47.7 33.2 57 W 6 G 14 29.83 1010.1 0.00 104 0.023
26 14:00 48.2 33.7 57 WSW 4 G 17 29.83 1010.2 0.00 468 0.015
26 13:00 46.8 33.7 48.5 36.1 60 W 3 G 16 29.84 1010.7 0.00 146 0.010
26 12:00 47.8 34.6 60 WNW 7 G 14 29.87 1011.4 0.00 186 0.005
26 11:00 46.1 35.0 65 WNW 4 G 15 29.88 1011.9 0.00 39 0.003
26 10:00 43.5 35.1 72 SW 2 G 12 29.89 1012.2 0.00 32 0.002
26 09:00 42.0 35.0 76 W 3 G 8 29.89 1012.3 0.00 98 0.001
26 08:00 36.2 32.1 85 SW 1 G 4 29.89 1012.2 0.00 28 0.001
26 07:00 38.3 33.3 40.2 31.1 82 SW 0 G 4 29.89 1012.1 0.00 0 0.001
26 06:00 40.0 34.0 79 W 1 G 7 29.88 1011.8 0.00 0 0.000
26 05:00 38.6 33.9 83 W 1 G 5 29.87 1011.5 0.00 0 0.000
26 04:00 31.5 29.4 92 W 1 G 4 29.88 1011.7 0.00 0 0.000
26 03:00 31.9 29.3 90 W 0 G 2 29.88 1011.9 0.00 0 0.000
26 02:00 34.0 31.1 89 Calm 29.88 1011.7 0.00 0 0.000
26 01:00 36.1 32.9 42.8 36.1 88 W 0 G 2 29.88 1011.8 0.00 0 0.000
26 00:00 36.6 33.9 90 W 0 G 3 29.88 1012.0 1.45 0 0.017
25 23:00 37.1 34.7 91 W 0 G 3 29.88 1011.7 1.45 0 0.017
25 22:00 38.8 36.4 91 W 0 G 1 29.86 1011.4 1.45 0 0.017
25 21:00 41.0 38.6 91 W 0 G 3 29.86 1011.3 1.45 0 0.017
25 20:00 41.2 38.2 89 Calm 29.86 1011.2 1.45 0 0.017
25 19:00 42.7 39.4 50.8 42.6 88 Calm 29.85 1011.0 1.45 0 0.017
25 18:00 45.2 40.3 83 W 0 G 3 29.84 1010.5 1.45 0 0.017
25 17:00 48.5 42.3 79 WNW 2 G 8 29.82 1010.0 1.45 9 0.016
25 16:00 50.0 44.7 82 WNW 1 G 13 29.81 1009.5 1.45 53 0.014
25 15:00 50.0 46.0 86 W 1 G 9 29.81 1009.5 1.45 51 0.011
25 14:00 49.7 46.9 90 W 3 G 9 29.79 1009.0 1.45 221 0.007
25 13:00 48.2 46.6 48.4 44.3 94 W 4 G 9 29.80 1009.3 0.20 1.45 100 0.004
25 12:00 47.7 46.3 95 WSW 2 G 7 29.81 1009.6 1.45 144 0.002
25 11:00 47.0 45.6 95 WNW 1 G 4 29.84 1010.5 1.45 123 0.001
25 10:00 45.9 44.5 95 ESE 0 G 3 29.82 1009.7 0.02 0.20 1.45 19 0.000
25 09:00 44.4 43.1 95 E 1 G 4 29.80 1009.2 0.05 1.43 14 0.000
25 08:00 45.2 43.9 95 N 2 G 6 29.83 1010.3 0.13 1.38 0 0.000
25 07:00 45.8 44.5 46.1 45.3 95 N 0 G 4 29.84 1010.5 0.22 0.67 1.25 1.25 0 0.000
25 06:00 45.5 44.2 95 NNE 4 G 15 29.82 1010.0 0.33 1.03 0 0.000
25 05:00 45.7 44.1 94 ENE 3 G 9 29.87 1011.6 0.12 0.70 0 0.000
25 04:00 45.8 44.2 94 ENE 2 G 6 29.93 1013.4 0.36 0.58 0.58 0 0.000
25 03:00 45.7 43.8 93 ENE 5 G 11 29.93 1013.7 0.19 0.22 0 0.000
25 02:00 45.7 43.2 91 ENE 4 G 12 29.97 1015.0 0.03 0.03 0 0.000
25 01:00 45.9 42.8 46.5 45.5 89 ENE 4 G 12 30.01 1016.3 0.00 0 0.000
25 00:00 45.7 42.4 88 ENE 6 G 12 30.05 1017.6 0.00 0 0.025
24 23:00 45.9 42.3 87 E 7 G 14 30.07 1018.3 0.00 0 0.024
24 22:00 45.7 42.1 87 E 2 G 15 30.10 1019.4 0.00 0 0.023
24 21:00 45.7 42.1 87 ENE 4 G 12 30.12 1020.1 0.00 0 0.022
24 20:00 46.0 42.1 86 ENE 2 G 11 30.15 1020.9 0.00 0 0.021
24 19:00 46.5 41.6 50.2 45.3 83 ENE 4 G 9 30.16 1021.5 0.00 0 0.020
24 18:00 48.5 42.9 81 E 4 G 14 30.17 1021.5 0.00 0 0.019
24 17:00 50.1 42.8 76 ENE 4 G 14 30.16 1021.3 0.00 11 0.018
24 16:00 49.3 42.7 78 ENE 2 G 8 30.17 1021.7 0.00 67 0.016
24 15:00 49.1 42.2 77 NE 0 G 4 30.19 1022.3 0.00 90 0.013
24 14:00 47.8 40.6 76 NNW 0 G 3 30.20 1022.7 0.00 190 0.009
24 13:00 45.3 37.8 45.5 28.4 75 NNE 0 G 5 30.23 1023.9 0.00 190 0.005
24 12:00 43.3 36.6 77 NE 2 G 7 30.27 1025.0 0.00 202 0.002
24 11:00 40.7 34.4 78 NE 3 G 10 30.29 1025.9 0.00 49 0.001
24 10:00 38.0 33.6 84 N 0 G 7 30.31 1026.4 0.00 95 0.000
24 09:00 31.4 28.5 89 NE 0 G 3 30.32 1026.7 0.00 70 0.000
24 08:00 29.1 26.3 89 Calm 30.33 1027.0 0.00 12 0.000
24 07:00 28.5 25.7 28.5 27.0 89 NE 0 G 1 30.31 1026.3 0.00 0 0.000
24 06:00 28.1 25.0 88 NE 0 G 1 30.31 1026.4 0.00 0 0.000
24 05:00 28.3 25.2 88 NE 0 G 1 30.31 1026.3 0.00 0 0.000
24 04:00 27.2 24.1 88 ENE 0 G 2 30.31 1026.3 0.00 0 0.000
24 03:00 27.0 23.7 87 Calm 30.32 1026.9 0.00 0 0.000
24 02:00 28.0 24.6 87 NE 0 G 3 30.32 1026.7 0.00 0 0.000
24 01:00 27.9 24.3 31.7 27.8 86 Calm 30.32 1026.8 0.00 0 0.000

Data generated by WxSolution Version 1.9.1.6, Build 2018.07.01.